Time;durP1;ratioP1;P1;durP2;ratioP2;P2;SDS_P1;SDS_P2;PMS_P1;PMS_P2;Temp;Humidity;BMP_temperature;BMP_pressure;BME280_temperature;BME280_humidity;BME280_pressure;Samples;Min_cycle;Max_cycle;Signal;HPM_P1;HPM_P2
2022/03/21 00:01:43;;;;;;;16.70;10.50;;;;;;;1.07;46.78;98541.63;5137429;27;20444;-37
2022/03/21 00:04:10;;;;;;;20.33;10.17;;;;;;;1.13;46.76;98546.34;5137235;27;20453;-36
2022/03/21 00:06:38;;;;;;;21.40;11.00;;;;;;;1.12;47.23;98542.09;5137286;27;20480;-37
2022/03/21 00:09:05;;;;;;;22.57;14.03;;;;;;;1.09;49.06;98544.94;5137449;27;20837;-36
2022/03/21 00:11:33;;;;;;;22.17;11.47;;;;;;;0.95;48.85;98547.94;5137152;27;20528;-36
2022/03/21 00:14:01;;;;;;;23.03;10.43;;;;;;;0.92;48.00;98538.56;5137067;27;20936;-37
2022/03/21 00:16:28;;;;;;;28.67;11.77;;;;;;;0.99;48.14;98541.47;5137040;27;20437;-36
2022/03/21 00:18:55;;;;;;;25.27;11.67;;;;;;;0.97;49.86;98541.63;5136860;27;20476;-36
2022/03/21 00:21:22;;;;;;;17.83;10.07;;;;;;;0.85;50.06;98532.22;5137263;27;20765;-36
2022/03/21 00:23:50;;;;;;;14.57;9.60;;;;;;;0.87;49.64;98535.53;5137257;27;20848;-36
2022/03/21 00:26:17;;;;;;;33.07;16.10;;;;;;;0.90;50.37;98540.47;5137162;27;20442;-36
2022/03/21 00:28:46;;;;;;;23.07;12.20;;;;;;;0.80;51.03;98537.00;5137091;27;20489;-36
2022/03/21 00:31:13;;;;;;;20.53;9.73;;;;;;;0.77;51.74;98540.69;5136814;27;20855;-36
2022/03/21 00:33:40;;;;;;;20.87;11.53;;;;;;;0.77;51.90;98539.88;5137001;27;20441;-36
2022/03/21 00:36:08;;;;;;;30.93;12.60;;;;;;;0.69;52.28;98547.53;5136713;27;20950;-36
2022/03/21 00:38:36;;;;;;;29.03;13.57;;;;;;;0.64;52.97;98545.31;5136651;27;20445;-36
2022/03/21 00:41:05;;;;;;;23.03;10.80;;;;;;;0.62;51.80;98544.63;5136637;27;20445;-37
2022/03/21 00:43:32;;;;;;;27.00;13.50;;;;;;;0.67;50.09;98539.84;5136509;27;20441;-37
2022/03/21 00:46:01;;;;;;;16.47;10.10;;;;;;;0.70;51.04;98529.13;5136770;27;20437;-36
2022/03/21 00:48:30;;;;;;;21.80;11.20;;;;;;;0.73;51.25;98528.88;5136363;27;20804;-36
2022/03/21 00:50:59;;;;;;;23.17;12.60;;;;;;;0.84;51.58;98529.72;5136616;27;20524;-37
2022/03/21 00:53:27;;;;;;;17.30;9.97;;;;;;;0.89;48.82;98538.00;5136679;27;20449;-36
2022/03/21 00:55:54;;;;;;;21.57;11.47;;;;;;;0.92;49.38;98525.47;5136246;27;20801;-37
2022/03/21 00:58:21;;;;;;;16.47;10.33;;;;;;;0.97;49.66;98527.72;5115683;28;20442;-36
2022/03/21 01:00:48;;;;;;;20.53;9.33;;;;;;;0.99;49.52;98518.78;5115922;28;20449;-36
2022/03/21 01:03:17;;;;;;;14.37;9.43;;;;;;;1.02;49.65;98518.50;5115547;28;20468;-36
2022/03/21 01:05:45;;;;;;;12.83;8.90;;;;;;;1.06;49.49;98523.47;5115522;28;20451;-37
2022/03/21 01:08:12;;;;;;;17.23;9.80;;;;;;;1.06;48.45;98513.84;5115447;28;20809;-37
2022/03/21 01:10:40;;;;;;;13.97;8.97;;;;;;;1.11;47.20;98519.47;5115432;28;21051;-39
2022/03/21 01:13:07;;;;;;;22.93;9.73;;;;;;;1.10;46.89;98515.22;5115403;28;20445;-37
2022/03/21 01:15:34;;;;;;;18.83;9.90;;;;;;;1.23;46.54;98520.22;5115384;28;20442;-37
2022/03/21 01:18:01;;;;;;;27.93;14.90;;;;;;;1.26;45.66;98519.94;5115232;28;20440;-37
2022/03/21 01:20:30;;;;;;;17.37;9.47;;;;;;;1.33;44.62;98514.97;5115621;28;20450;-37
2022/03/21 01:22:57;;;;;;;23.67;10.47;;;;;;;1.37;44.81;98516.38;5115474;28;20490;-36
2022/03/21 01:25:24;;;;;;;20.93;9.60;;;;;;;1.42;44.24;98508.94;5115959;28;20442;-36
2022/03/21 01:27:52;;;;;;;15.07;8.77;;;;;;;1.43;43.76;98500.13;5115437;28;20441;-36
2022/03/21 01:30:21;;;;;;;20.10;10.47;;;;;;;1.51;43.52;98508.13;5114150;28;20482;-36
2022/03/21 01:32:48;;;;;;;15.13;8.90;;;;;;;1.55;43.48;98499.03;5115010;28;20450;-37
2022/03/21 01:35:18;;;;;;;18.80;9.20;;;;;;;1.59;43.94;98505.66;5114894;28;20473;-37
2022/03/21 01:37:47;;;;;;;17.23;9.80;;;;;;;1.63;43.06;98496.56;5115509;28;20533;-37
2022/03/21 01:40:15;;;;;;;16.90;9.33;;;;;;;1.66;42.94;98494.59;5114853;28;21017;-36
2022/03/21 01:42:46;;;;;;;16.40;7.90;;;;;;;1.67;42.94;98497.09;5114754;28;20434;-38
2022/03/21 01:45:14;;;;;;;17.40;10.00;;;;;;;1.67;43.28;98485.78;5115150;28;20429;-37
2022/03/21 01:47:42;;;;;;;20.13;9.57;;;;;;;1.66;43.40;98484.97;5115034;28;20781;-36
2022/03/21 01:50:11;;;;;;;17.33;9.03;;;;;;;1.68;42.79;98483.03;5114965;28;20485;-36
2022/03/21 01:52:38;;;;;;;23.20;8.67;;;;;;;1.68;43.09;98493.53;5114842;28;20438;-37
2022/03/21 01:57:54;;;;;;;21.73;9.83;;;;;;;1.70;42.79;98501.22;5131391;27;20502;-36
2022/03/21 02:00:21;;;;;;;13.63;8.47;;;;;;;1.71;43.04;98497.66;5135070;27;20437;-37
2022/03/21 02:02:49;;;;;;;17.40;10.60;;;;;;;1.70;43.52;98490.75;5134957;27;20481;-37
2022/03/21 02:05:16;;;;;;;16.63;8.60;;;;;;;1.70;43.78;98488.13;5135290;27;20468;-37
2022/03/21 02:07:43;;;;;;;15.53;9.83;;;;;;;1.68;43.65;98483.03;5134936;27;20445;-37
2022/03/21 02:10:12;;;;;;;18.10;8.87;;;;;;;1.67;42.95;98483.19;5134740;27;20572;-37
2022/03/21 02:12:40;;;;;;;18.00;9.47;;;;;;;1.66;42.93;98484.13;5134812;27;20908;-37
2022/03/21 02:15:09;;;;;;;16.53;9.70;;;;;;;1.70;42.93;98485.50;5134794;27;20437;-36
2022/03/21 02:17:40;;;;;;;26.23;11.03;;;;;;;1.70;42.32;98481.13;5134740;27;20437;-37
2022/03/21 02:20:08;;;;;;;12.50;8.10;;;;;;;1.76;42.31;98485.78;5134695;27;20437;-36
2022/03/21 02:22:49;;;;;;;11.13;9.50;;;;;;;1.76;42.44;98495.44;5134740;27;20969;-37
2022/03/21 02:25:31;;;;;;;25.60;12.50;;;;;;;1.76;42.49;98490.19;5134685;27;20478;-37
2022/03/21 02:28:00;;;;;;;23.77;10.87;;;;;;;1.79;41.58;98496.00;5134957;27;20426;-37
2022/03/21 02:30:29;;;;;;;16.43;9.40;;;;;;;1.81;41.94;98501.09;5134792;27;20983;-37
2022/03/21 02:32:57;;;;;;;13.87;7.93;;;;;;;1.82;42.46;98479.16;5134797;27;20466;-37
2022/03/21 02:35:26;;;;;;;26.83;10.17;;;;;;;1.80;42.24;98481.91;5134485;27;20441;-37
2022/03/21 02:37:56;;;;;;;17.77;9.10;;;;;;;1.80;42.34;98481.91;5134432;27;20827;-37
2022/03/21 02:40:25;;;;;;;12.93;9.80;;;;;;;1.82;42.06;98471.31;5134962;27;20436;-37
2022/03/21 02:42:53;;;;;;;14.23;7.63;;;;;;;1.71;41.72;98467.03;5134195;27;20497;-37
2022/03/21 02:45:21;;;;;;;12.90;9.63;;;;;;;1.84;42.35;98480.66;5134422;27;20445;-37
2022/03/21 02:47:48;;;;;;;29.43;8.77;;;;;;;1.85;42.30;98473.66;5134657;28;20440;-36
2022/03/21 02:50:19;;;;;;;18.10;8.80;;;;;;;1.86;42.27;98469.25;5134625;28;20524;-37
2022/03/21 02:52:49;;;;;;;16.70;9.90;;;;;;;1.89;42.45;98464.53;5134271;28;20437;-37
2022/03/21 02:55:16;;;;;;;17.10;8.47;;;;;;;1.84;42.83;98472.00;5134666;28;20469;-37
2022/03/21 02:57:45;;;;;;;12.03;7.47;;;;;;;1.83;42.03;98480.84;5134075;28;20472;-37
2022/03/21 03:00:13;;;;;;;16.50;9.40;;;;;;;1.79;42.71;98463.75;5134244;28;20857;-36
2022/03/21 03:02:40;;;;;;;11.90;8.37;;;;;;;1.79;42.63;98474.22;5134241;28;20494;-37
2022/03/21 03:05:09;;;;;;;14.23;8.03;;;;;;;1.82;42.04;98476.53;5134407;28;20508;-36
2022/03/21 03:07:36;;;;;;;15.30;9.17;;;;;;;1.73;42.37;98480.00;5134166;28;20814;-36
2022/03/21 03:10:04;;;;;;;16.03;10.10;;;;;;;1.70;42.76;98480.28;5134381;28;20476;-37
2022/03/21 03:12:31;;;;;;;22.67;9.60;;;;;;;1.60;43.87;98480.28;5134433;28;20516;-37
2022/03/21 03:15:00;;;;;;;24.90;10.30;;;;;;;1.52;44.13;98477.53;5134063;28;20448;-37
2022/03/21 03:17:28;;;;;;;19.77;10.27;;;;;;;1.49;43.94;98475.19;5134031;28;20433;-37
2022/03/21 03:19:55;;;;;;;22.53;9.50;;;;;;;1.40;44.96;98474.22;5134399;28;20524;-37
2022/03/21 03:22:25;;;;;;;20.60;12.03;;;;;;;1.32;44.98;98471.47;5134057;28;20429;-36
2022/03/21 03:24:53;;;;;;;19.70;10.83;;;;;;;1.21;45.38;98483.69;5134314;28;20516;-36
2022/03/21 03:27:21;;;;;;;19.30;9.17;;;;;;;1.28;45.36;98477.94;5134298;28;20449;-37
2022/03/21 03:29:48;;;;;;;15.20;8.87;;;;;;;1.25;44.30;98472.94;5133884;28;20485;-36
2022/03/21 03:32:17;;;;;;;11.73;8.50;;;;;;;1.21;45.00;98469.78;5134215;28;20437;-37
2022/03/21 03:34:44;;;;;;;17.20;9.60;;;;;;;1.20;45.13;98474.19;5134186;28;20501;-36
2022/03/21 03:37:12;;;;;;;23.20;11.33;;;;;;;1.15;45.22;98460.69;5134174;28;20442;-36
2022/03/21 03:39:40;;;;;;;31.90;13.60;;;;;;;1.22;45.12;98472.25;5133843;28;20445;-36
2022/03/21 03:42:08;;;;;;;19.57;10.20;;;;;;;1.19;45.65;98472.53;5134179;28;20469;-37
2022/03/21 03:44:35;;;;;;;19.20;11.40;;;;;;;1.18;46.00;98476.13;5133754;28;20437;-37
2022/03/21 03:47:02;;;;;;;16.73;9.10;;;;;;;1.23;45.57;98479.16;5133889;28;20445;-36
2022/03/21 03:49:31;;;;;;;17.13;8.80;;;;;;;1.26;44.50;98472.00;5133706;28;20447;-36
2022/03/21 03:51:58;;;;;;;18.47;8.90;;;;;;;1.27;44.74;98484.09;5133756;28;20441;-37
2022/03/21 03:54:26;;;;;;;16.33;10.97;;;;;;;1.25;44.24;98471.19;5135820;27;20476;-37
2022/03/21 03:56:53;;;;;;;16.43;9.33;;;;;;;1.33;44.10;98473.09;5137279;27;20507;-36
2022/03/21 03:59:20;;;;;;;21.53;12.00;;;;;;;1.37;45.60;98477.09;5137754;27;20496;-37
2022/03/21 04:01:47;;;;;;;21.83;10.07;;;;;;;1.41;45.74;98475.88;5137635;27;20445;-36
2022/03/21 04:04:14;;;;;;;22.23;11.27;;;;;;;1.45;46.35;98474.63;5137353;27;20437;-37
2022/03/21 04:06:43;;;;;;;23.83;11.80;;;;;;;1.46;46.42;98478.88;5137255;27;20488;-37
2022/03/21 04:09:10;;;;;;;28.87;12.17;;;;;;;1.45;46.35;98476.44;5138040;27;20437;-36
2022/03/21 04:11:38;;;;;;;23.80;11.53;;;;;;;1.34;46.24;98459.06;5137914;27;20495;-36
2022/03/21 04:14:05;;;;;;;19.40;10.60;;;;;;;1.41;46.51;98465.41;5137184;27;20793;-37
2022/03/21 04:16:32;;;;;;;20.90;10.40;;;;;;;1.40;46.97;98469.00;5137155;27;20445;-36
2022/03/21 04:18:59;;;;;;;51.57;24.20;;;;;;;1.38;46.75;98466.50;5137023;27;20441;-37
2022/03/21 04:21:27;;;;;;;34.33;16.03;;;;;;;1.38;47.18;98468.31;5137015;27;20447;-36
2022/03/21 04:23:57;;;;;;;29.30;11.80;;;;;;;1.37;47.48;98462.22;5136929;27;20441;-37
2022/03/21 04:26:24;;;;;;;23.03;13.17;;;;;;;1.39;47.02;98460.28;5137165;27;20928;-37
2022/03/21 04:28:52;;;;;;;19.20;11.17;;;;;;;1.42;46.90;98456.59;5136901;27;20556;-38
2022/03/21 04:31:19;;;;;;;23.07;12.73;;;;;;;1.46;47.12;98463.19;5137015;27;20580;-37
2022/03/21 04:33:46;;;;;;;34.47;13.20;;;;;;;1.52;46.66;98460.00;5136799;27;20919;-37
2022/03/21 04:36:14;;;;;;;30.23;14.20;;;;;;;1.58;46.83;98462.09;5136729;27;20441;-37
2022/03/21 04:38:41;;;;;;;23.80;14.60;;;;;;;1.70;46.33;98464.56;5137820;27;20471;-36
2022/03/21 04:41:10;;;;;;;43.20;22.50;;;;;;;1.79;46.06;98458.50;5136925;27;20429;-37
2022/03/21 04:43:38;;;;;;;33.47;15.63;;;;;;;1.84;46.32;98458.91;5136873;27;20477;-37
2022/03/21 04:46:06;;;;;;;31.87;15.63;;;;;;;1.95;46.32;98457.91;5136486;27;20441;-37
2022/03/21 04:48:33;;;;;;;25.17;12.83;;;;;;;2.17;46.41;98462.00;5136793;27;20445;-36
2022/03/21 04:51:00;;;;;;;21.77;13.27;;;;;;;2.46;45.67;98462.72;5136399;27;20495;-37
2022/03/21 04:53:28;;;;;;;14.30;10.60;;;;;;;2.81;45.36;98466.44;5136444;27;20525;-37
2022/03/21 04:55:55;;;;;;;22.13;10.80;;;;;;;3.17;44.26;98469.13;5136471;27;20465;-37
2022/03/21 04:58:24;;;;;;;21.77;10.60;;;;;;;3.46;43.76;98460.22;5136140;27;20987;-38
2022/03/21 05:00:52;;;;;;;19.57;10.20;;;;;;;3.74;43.58;98454.88;5136186;27;20441;-38
2022/03/21 05:03:19;;;;;;;33.30;18.57;;;;;;;4.18;42.52;98474.09;5136066;27;20449;-38
2022/03/21 05:05:46;;;;;;;92.10;35.83;;;;;;;4.49;41.96;98471.78;5136181;27;20465;-39
2022/03/21 05:08:13;;;;;;;69.57;30.93;;;;;;;4.84;41.81;98471.78;5136135;27;20528;-38
2022/03/21 05:10:42;;;;;;;52.67;21.90;;;;;;;5.21;41.14;98471.44;5136216;27;20581;-37
2022/03/21 05:13:10;;;;;;;35.93;19.27;;;;;;;5.48;40.09;98458.94;5136266;27;20799;-37
2022/03/21 05:15:38;;;;;;;25.60;15.33;;;;;;;5.87;39.30;98468.84;5135937;27;20524;-37
2022/03/21 05:18:06;;;;;;;22.70;11.40;;;;;;;6.10;38.87;98479.59;5136157;27;20445;-37
2022/03/21 05:20:33;;;;;;;22.50;11.70;;;;;;;6.17;37.93;98474.47;5135820;27;20850;-37
2022/03/21 05:31:15;;;;;;;52.20;27.03;;;;;;;7.32;35.66;98473.06;5135790;27;20468;-38
2022/03/21 05:36:27;;;;;;;22.83;12.37;;;;;;;7.51;35.81;98485.00;5136218;27;20530;-39
2022/03/21 05:38:55;;;;;;;20.40;10.83;;;;;;;7.65;35.33;98488.69;5135457;27;20433;-38
2022/03/21 05:41:22;;;;;;;31.67;12.90;;;;;;;7.75;34.54;98486.66;5135352;27;20448;-38
2022/03/21 05:43:50;;;;;;;20.60;11.10;;;;;;;7.86;34.23;98481.94;5135153;27;20453;-38
2022/03/21 05:46:19;;;;;;;44.17;23.57;;;;;;;7.99;33.97;98495.38;5135636;27;20897;-38
2022/03/21 05:48:54;;;;;;;41.47;18.73;;;;;;;8.26;34.17;98499.28;5135284;27;21015;-38
2022/03/21 05:51:27;;;;;;;33.70;17.50;;;;;;;8.48;33.80;98489.69;5135490;27;20866;-38
2022/03/21 05:53:55;;;;;;;17.60;12.73;;;;;;;8.80;33.54;98492.97;5135510;27;20504;-38
2022/03/21 05:56:25;;;;;;;19.60;13.07;;;;;;;8.93;32.88;98490.50;5135182;27;20560;-38
2022/03/21 05:58:53;;;;;;;24.47;11.53;;;;;;;9.14;32.57;98495.03;5135012;27;20477;-39
2022/03/21 06:01:23;;;;;;;18.80;11.77;;;;;;;9.29;32.35;98484.41;5135283;27;20824;-38
2022/03/21 06:03:52;;;;;;;23.30;12.90;;;;;;;9.40;32.26;98494.53;5134975;27;20527;-37
2022/03/21 06:06:20;;;;;;;26.70;12.40;;;;;;;9.33;31.57;98485.66;5134920;27;20478;-38
2022/03/21 06:08:47;;;;;;;43.60;15.33;;;;;;;9.46;31.81;98486.81;5134820;27;20441;-38
2022/03/21 06:11:14;;;;;;;26.40;13.33;;;;;;;9.45;31.99;98490.50;5134721;27;20488;-38
2022/03/21 06:13:43;;;;;;;30.20;17.00;;;;;;;9.28;32.02;98501.31;5134868;27;20452;-38
2022/03/21 06:16:11;;;;;;;23.77;15.17;;;;;;;9.54;32.19;98497.31;5134770;27;20842;-38
2022/03/21 06:18:40;;;;;;;28.50;15.77;;;;;;;9.69;31.13;98495.44;5134924;27;20516;-38
2022/03/21 06:21:09;;;;;;;17.93;14.63;;;;;;;9.78;31.24;98494.28;5134750;27;20445;-38
2022/03/21 06:23:37;;;;;;;29.07;14.00;;;;;;;9.84;31.19;98485.56;5134700;27;20512;-38
2022/03/21 06:26:05;;;;;;;28.53;15.20;;;;;;;9.91;30.53;98488.28;5134558;27;20441;-38
2022/03/21 06:28:33;;;;;;;20.57;12.87;;;;;;;10.08;30.63;98488.84;5134716;27;20924;-38
2022/03/21 06:31:01;;;;;;;30.70;16.23;;;;;;;10.07;30.61;98497.81;5134471;27;20492;-38
2022/03/21 06:33:30;;;;;;;44.87;18.87;;;;;;;9.96;30.39;98479.75;5134465;27;20437;-38
2022/03/21 06:36:00;;;;;;;30.80;16.47;;;;;;;10.02;30.74;98497.56;5134557;27;20437;-38
2022/03/21 06:38:27;;;;;;;22.10;13.97;;;;;;;10.05;31.25;98494.53;5134723;27;20441;-38
2022/03/21 06:40:55;;;;;;;25.20;14.67;;;;;;;10.09;30.57;98495.81;5134528;27;20448;-37
2022/03/21 06:43:24;;;;;;;30.63;15.80;;;;;;;9.81;30.83;98491.28;5134362;27;20441;-38
2022/03/21 06:45:52;;;;;;;21.10;13.30;;;;;;;9.62;31.09;98494.56;5134754;27;20449;-37
2022/03/21 06:48:20;;;;;;;39.80;21.47;;;;;;;9.98;31.13;98493.66;5134645;27;20437;-37
2022/03/21 06:50:48;;;;;;;37.07;20.43;;;;;;;10.37;31.34;98492.38;5134162;28;20561;-38
2022/03/21 06:53:19;;;;;;;23.57;13.97;;;;;;;10.69;30.85;98485.63;5134431;28;20839;-37
2022/03/21 06:55:47;;;;;;;25.57;12.07;;;;;;;10.97;29.70;98490.91;5134532;28;20432;-38
2022/03/21 06:58:15;;;;;;;20.30;12.37;;;;;;;11.06;29.53;98492.34;5134193;28;20469;-38
2022/03/21 07:00:44;;;;;;;30.00;14.73;;;;;;;10.64;29.64;98488.84;5134521;28;20465;-38
2022/03/21 07:03:14;;;;;;;25.70;14.60;;;;;;;10.56;29.69;98493.50;5134454;28;20437;-38
2022/03/21 07:05:42;;;;;;;35.30;15.70;;;;;;;10.56;30.38;98486.38;5134708;28;20789;-37
2022/03/21 07:08:09;;;;;;;22.70;13.20;;;;;;;10.71;29.99;98491.56;5134148;28;20445;-38
2022/03/21 07:10:40;;;;;;;20.13;13.90;;;;;;;10.64;29.49;98499.47;5134038;28;20444;-38
2022/03/21 07:13:08;;;;;;;22.43;13.00;;;;;;;10.81;29.22;98499.19;5134158;28;20939;-38
2022/03/21 07:15:37;;;;;;;24.23;13.10;;;;;;;10.91;29.52;98491.69;5133979;28;20453;-38
2022/03/21 07:18:04;;;;;;;31.60;13.93;;;;;;;10.97;29.08;98495.38;5134361;28;20520;-38
2022/03/21 07:20:31;;;;;;;21.10;13.37;;;;;;;10.72;29.04;98495.03;5134315;28;20457;-38
2022/03/21 07:23:00;;;;;;;15.20;11.83;;;;;;;10.73;29.83;98491.34;5133985;28;20924;-38
2022/03/21 07:25:28;;;;;;;24.20;12.80;;;;;;;10.99;29.74;98493.34;5134319;28;20437;-38
2022/03/21 07:27:57;;;;;;;21.00;12.73;;;;;;;11.20;28.65;98487.91;5134363;27;20448;-38
2022/03/21 07:30:25;;;;;;;25.53;12.60;;;;;;;11.26;29.50;98497.75;5137694;27;20440;-38
2022/03/21 07:32:52;;;;;;;17.23;11.60;;;;;;;11.23;27.86;98487.53;5138226;27;20498;-38
2022/03/21 07:35:20;;;;;;;18.00;10.90;;;;;;;10.99;27.96;98491.50;5138728;27;20448;-38
2022/03/21 07:37:49;;;;;;;18.13;10.23;;;;;;;10.35;28.74;98473.16;5137880;27;20445;-38
2022/03/21 07:40:17;;;;;;;17.47;11.87;;;;;;;9.86;29.00;98496.00;5137812;27;20495;-38
2022/03/21 07:42:47;;;;;;;19.47;9.60;;;;;;;9.33;29.94;98495.44;5137861;27;20524;-38
2022/03/21 07:48:01;;;;;;;22.03;14.00;;;;;;;8.32;31.52;98503.03;5138388;27;20425;-37
2022/03/21 07:50:29;;;;;;;16.10;10.67;;;;;;;7.98;31.27;98475.25;5137506;27;20473;-38
2022/03/21 07:52:59;;;;;;;17.67;10.57;;;;;;;8.20;31.95;98494.72;5137708;27;20529;-38
2022/03/21 07:55:26;;;;;;;25.90;10.33;;;;;;;8.53;33.31;98495.25;5137581;27;20434;-37
2022/03/21 07:57:54;;;;;;;21.67;9.47;;;;;;;8.87;31.47;98491.22;5137541;27;20510;-37
2022/03/21 08:00:23;;;;;;;15.93;9.80;;;;;;;9.09;31.78;98486.81;5137429;27;20531;-38
2022/03/21 08:02:51;;;;;;;22.40;10.67;;;;;;;9.45;30.94;98493.97;5137724;27;20824;-38
2022/03/21 08:05:20;;;;;;;13.30;9.47;;;;;;;9.50;30.14;98488.91;5137772;27;20784;-38
2022/03/21 08:07:47;;;;;;;18.90;10.40;;;;;;;9.68;30.71;98485.84;5137268;27;20520;-38
2022/03/21 08:10:15;;;;;;;19.53;10.40;;;;;;;9.72;30.16;98484.47;5137443;27;20441;-38
2022/03/21 08:12:43;;;;;;;13.77;9.07;;;;;;;9.63;30.83;98490.88;5137457;27;20917;-38
2022/03/21 08:15:11;;;;;;;13.90;8.53;;;;;;;8.97;30.94;98483.81;5137125;27;20524;-38
2022/03/21 08:17:50;;;;;;;13.20;9.40;;;;;;;8.49;32.37;98493.97;5137118;27;20446;-38
2022/03/21 08:20:19;;;;;;;20.67;10.97;;;;;;;8.03;32.81;98483.47;5137408;27;20428;-37
2022/03/21 08:22:48;;;;;;;14.60;8.60;;;;;;;7.68;32.84;98501.59;5137294;27;20921;-37
2022/03/21 08:25:15;;;;;;;11.83;7.67;;;;;;;7.74;32.82;98490.31;5137516;27;20445;-38
2022/03/21 08:27:44;;;;;;;19.13;10.97;;;;;;;7.52;33.50;98491.91;5136945;27;20527;-38
2022/03/21 08:30:13;;;;;;;15.57;9.10;;;;;;;7.39;33.20;98487.22;5136794;27;20440;-37
2022/03/21 08:32:41;;;;;;;13.90;8.60;;;;;;;7.03;33.96;98491.38;5137025;27;20520;-37
2022/03/21 08:35:11;;;;;;;14.27;8.23;;;;;;;6.77;34.12;98484.53;5137378;27;20509;-37
2022/03/21 08:37:38;;;;;;;18.60;8.97;;;;;;;6.95;34.63;98484.31;5137549;27;20438;-37
2022/03/21 08:40:07;;;;;;;23.23;9.33;;;;;;;7.19;34.85;98480.72;5136269;27;20967;-39
2022/03/21 08:42:35;;;;;;;19.00;9.03;;;;;;;7.52;34.22;98494.56;5136883;27;20433;-38
2022/03/21 08:45:02;;;;;;;15.97;9.00;;;;;;;7.28;34.29;98494.72;5136506;27;20928;-38
2022/03/21 08:47:29;;;;;;;19.17;9.90;;;;;;;7.46;34.08;98502.38;5136654;27;20528;-38
2022/03/21 08:49:57;;;;;;;17.77;9.80;;;;;;;7.71;33.32;98485.34;5136860;27;20841;-38
2022/03/21 08:52:25;;;;;;;16.00;9.73;;;;;;;8.01;33.68;98490.75;5136389;27;20484;-38
2022/03/21 08:54:53;;;;;;;14.87;9.53;;;;;;;8.23;33.06;98501.47;5136424;27;20441;-38
2022/03/21 08:57:20;;;;;;;15.50;9.27;;;;;;;8.13;33.68;98499.06;5136259;27;20986;-37
2022/03/21 08:59:47;;;;;;;20.93;9.10;;;;;;;8.15;33.06;98487.31;5136232;27;20528;-39
2022/03/21 09:02:15;;;;;;;17.57;8.57;;;;;;;8.05;32.95;98499.16;5136273;27;20437;-38
2022/03/21 09:04:42;;;;;;;11.40;7.80;;;;;;;8.44;33.76;98487.56;5136117;27;20501;-38
2022/03/21 09:07:09;;;;;;;13.63;8.47;;;;;;;8.64;31.56;98485.22;5136413;27;20442;-38
2022/03/21 09:09:38;;;;;;;26.87;9.80;;;;;;;8.70;32.59;98479.19;5136054;27;20441;-38
2022/03/21 09:12:07;;;;;;;18.10;9.50;;;;;;;8.84;32.96;98496.06;5136129;27;20503;-38
2022/03/21 09:14:34;;;;;;;13.43;8.33;;;;;;;8.65;33.04;98470.94;5135950;27;20448;-37
2022/03/21 09:17:02;;;;;;;13.43;8.47;;;;;;;8.53;32.79;98486.47;5135860;27;20445;-38
2022/03/21 09:19:29;;;;;;;17.23;8.50;;;;;;;7.97;33.03;98484.16;5135924;27;20441;-38
2022/03/21 09:21:57;;;;;;;14.60;7.97;;;;;;;7.85;32.83;98486.44;5135938;27;20992;-37
2022/03/21 09:24:25;;;;;;;22.40;9.97;;;;;;;8.06;33.34;98492.84;5135744;27;20441;-38
2022/03/21 09:26:54;;;;;;;19.00;8.63;;;;;;;7.93;33.79;98490.81;5135672;27;20912;-37
2022/03/21 09:29:21;;;;;;;12.77;9.77;;;;;;;8.06;33.01;98488.38;5135599;27;20448;-37
2022/03/21 09:31:49;;;;;;;16.00;11.03;;;;;;;8.15;33.14;98492.63;5135715;27;20495;-38
2022/03/21 09:34:19;;;;;;;26.33;11.90;;;;;;;8.06;32.97;98490.22;5135897;27;20908;-37
2022/03/21 09:36:48;;;;;;;20.07;10.33;;;;;;;8.12;33.32;98490.31;5135763;27;20908;-37
2022/03/21 09:39:15;;;;;;;11.90;7.90;;;;;;;7.90;32.61;98488.53;5135503;27;20498;-38
2022/03/21 09:41:44;;;;;;;16.00;8.90;;;;;;;8.01;33.11;98477.53;5135625;27;20485;-38
2022/03/21 09:44:13;;;;;;;15.47;8.03;;;;;;;8.05;32.83;98476.16;5135658;27;20445;-38
2022/03/21 09:46:43;;;;;;;17.20;7.80;;;;;;;8.20;33.21;98466.44;5135283;27;20444;-37
2022/03/21 09:49:11;;;;;;;13.77;8.47;;;;;;;8.30;32.49;98460.03;5135595;27;20445;-37
2022/03/21 09:51:40;;;;;;;12.43;9.10;;;;;;;8.49;32.36;98483.38;5134431;27;21058;-38
2022/03/21 09:54:08;;;;;;;19.00;12.37;;;;;;;8.35;31.83;98471.75;5135149;27;20540;-37
2022/03/21 10:13:44;;;;;;;11.20;8.30;;;;;;;8.86;30.53;98436.59;5111986;27;20616;-38
2022/03/21 10:16:13;;;;;;;17.90;9.10;;;;;;;8.87;31.48;98435.59;5111380;28;20447;-39
2022/03/21 10:18:57;;;;;;;18.07;9.57;;;;;;;8.80;30.94;98421.47;5111346;28;20483;-38
2022/03/21 10:21:26;;;;;;;23.43;12.70;;;;;;;8.82;32.33;98432.69;5110919;28;20501;-38
2022/03/21 10:23:59;;;;;;;17.67;11.23;;;;;;;8.93;31.88;98421.63;5111212;28;20926;-38
2022/03/21 10:26:29;;;;;;;13.50;8.30;;;;;;;8.85;31.85;98432.31;5111183;28;20502;-38
2022/03/21 10:29:00;;;;;;;11.93;7.47;;;;;;;8.84;31.45;98428.03;5111120;28;20537;-39
2022/03/21 10:31:38;;;;;;;18.60;11.17;;;;;;;8.73;32.18;98425.84;5110893;28;20513;-38
2022/03/21 10:34:07;;;;;;;14.10;10.03;;;;;;;8.58;32.28;98420.56;5110768;28;20944;-38
2022/03/21 10:36:35;;;;;;;14.73;9.87;;;;;;;8.53;31.64;98418.47;5110967;28;20446;-38
2022/03/21 10:39:10;;;;;;;13.57;7.47;;;;;;;8.72;31.26;98403.03;5110898;28;20545;-36
2022/03/21 10:41:39;;;;;;;14.80;9.13;;;;;;;9.09;31.92;98409.16;5110534;28;20469;-36
2022/03/21 10:44:09;;;;;;;18.83;9.03;;;;;;;8.99;30.42;98410.28;5110488;28;20442;-38
2022/03/21 10:46:37;;;;;;;14.47;8.83;;;;;;;8.95;30.51;98409.03;5110487;28;20806;-38
2022/03/21 10:49:06;;;;;;;14.07;6.40;;;;;;;8.76;30.07;98399.00;5110395;28;20987;-38
2022/03/21 10:51:51;;;;;;;13.60;7.70;;;;;;;8.63;30.53;98398.84;5110402;28;20450;-36
2022/03/21 10:54:41;;;;;;;14.03;8.77;;;;;;;8.60;31.08;98406.16;5110385;28;20453;-34
2022/03/21 10:57:26;;;;;;;7.00;6.20;;;;;;;8.55;31.16;98397.94;5110656;28;20438;-38
2022/03/21 11:00:12;;;;;;;11.53;7.30;;;;;;;8.57;30.68;98395.09;5110224;28;20510;-38
2022/03/21 11:02:49;;;;;;;16.73;6.63;;;;;;;8.65;30.54;98388.88;5110167;28;20481;-38
2022/03/21 11:05:18;;;;;;;15.43;6.73;;;;;;;8.56;30.91;98389.00;5110172;28;20437;-36
2022/03/21 11:07:46;;;;;;;8.33;6.70;;;;;;;8.65;30.90;98389.72;5110084;28;20975;-36
2022/03/21 11:10:14;;;;;;;14.07;7.07;;;;;;;8.76;29.91;98380.47;5109974;28;20446;-37
2022/03/21 11:12:42;;;;;;;14.77;6.60;;;;;;;8.82;30.38;98374.44;5119530;28;20481;-39
2022/03/21 11:15:12;;;;;;;10.03;7.90;;;;;;;8.58;30.14;98357.88;5116747;28;20490;-38
2022/03/21 11:17:39;;;;;;;10.10;6.17;;;;;;;8.56;31.51;98351.94;5116690;28;20498;-38
2022/03/21 11:20:09;;;;;;;11.13;7.40;;;;;;;8.90;30.39;98369.00;5116957;28;20469;-39
2022/03/21 11:22:37;;;;;;;10.17;6.50;;;;;;;8.90;30.56;98382.25;5116412;28;20524;-38
2022/03/21 11:25:06;;;;;;;8.47;7.00;;;;;;;8.89;30.73;98362.09;5116502;28;20450;-37
2022/03/21 11:27:51;;;;;;;15.30;7.40;;;;;;;8.82;30.69;98371.78;5116428;28;20526;-37
2022/03/21 11:30:28;;;;;;;11.83;8.53;;;;;;;8.72;31.36;98373.91;5116527;28;20430;-35
2022/03/21 11:33:03;;;;;;;15.60;7.80;;;;;;;8.66;31.75;98340.22;5116322;28;21027;-37
2022/03/21 11:35:32;;;;;;;13.63;7.10;;;;;;;8.84;31.28;98359.19;5116365;28;20448;-37
2022/03/21 11:38:25;;;;;;;14.67;7.70;;;;;;;8.82;30.98;98355.91;5116227;28;20521;-37
2022/03/21 11:41:10;;;;;;;9.73;6.80;;;;;;;8.59;31.46;98346.25;5116475;28;20533;-37
2022/03/21 11:43:38;;;;;;;12.07;7.10;;;;;;;8.66;31.45;98350.81;5116470;28;20598;-33
2022/03/21 11:46:29;;;;;;;10.83;7.80;;;;;;;8.53;32.00;98352.28;5115982;28;20450;-36
2022/03/21 11:48:58;;;;;;;10.53;7.90;;;;;;;8.70;32.05;98347.59;5116372;28;20436;-37
2022/03/21 11:51:29;;;;;;;12.87;7.07;;;;;;;8.69;31.23;98355.72;5116355;28;20473;-37
2022/03/21 11:53:57;;;;;;;9.43;6.20;;;;;;;8.70;31.26;98339.66;5115937;28;20431;-36
2022/03/21 11:57:00;;;;;;;16.37;10.13;;;;;;;8.71;32.17;98343.97;5115904;28;20529;-37
2022/03/21 11:59:53;;;;;;;10.63;8.67;;;;;;;8.76;31.50;98336.28;5116277;28;20438;-37
2022/03/21 12:02:58;;;;;;;10.00;7.47;;;;;;;8.77;31.25;98329.13;5115810;28;20478;-38
2022/03/21 12:05:52;;;;;;;7.33;5.10;;;;;;;8.93;31.54;98331.56;5116121;28;20842;-37
2022/03/21 12:08:53;;;;;;;15.90;7.77;;;;;;;8.85;30.62;98313.13;5115837;28;20426;-36
2022/03/21 12:12:03;;;;;;;7.67;6.97;;;;;;;8.81;31.13;98333.06;5115713;28;20515;-35
2022/03/21 12:14:45;;;;;;;14.40;7.80;;;;;;;8.73;31.85;98328.72;5116009;28;20817;-36